createdAt,value
2022-11-09T00:02:13.874Z,9.90
2022-11-09T00:04:45.676Z,10.00
2022-11-09T00:07:17.527Z,10.00
2022-11-09T00:09:49.480Z,9.90
2022-11-09T00:12:21.344Z,10.00
2022-11-09T00:14:53.052Z,9.90
2022-11-09T00:17:26.199Z,10.00
2022-11-09T00:19:57.912Z,10.00
2022-11-09T00:22:29.602Z,10.10
2022-11-09T00:25:01.298Z,10.10
2022-11-09T00:27:32.973Z,10.00
2022-11-09T00:30:05.272Z,10.00
2022-11-09T00:32:38.096Z,10.10
2022-11-09T00:35:12.384Z,10.10
2022-11-09T00:37:44.301Z,10.20
2022-11-09T00:40:16.574Z,10.10
2022-11-09T00:42:48.294Z,10.20
2022-11-09T00:45:20.319Z,10.10
2022-11-09T00:47:52.139Z,10.10
2022-11-09T00:50:23.854Z,10.10
2022-11-09T00:52:55.705Z,10.20
2022-11-09T00:55:28.176Z,10.20
2022-11-09T00:57:59.861Z,10.10
2022-11-09T01:00:32.883Z,10.20
2022-11-09T01:03:04.618Z,10.30
2022-11-09T01:05:41.717Z,10.30
2022-11-09T01:08:14.790Z,10.20
2022-11-09T01:10:49.295Z,10.30
2022-11-09T01:13:21.325Z,10.30
2022-11-09T01:15:53.862Z,10.30
2022-11-09T01:18:25.720Z,10.30
2022-11-09T01:20:57.475Z,10.40
2022-11-09T01:23:29.203Z,10.40
2022-11-09T01:26:03.021Z,10.40
2022-11-09T01:28:35.250Z,10.40
2022-11-09T01:31:13.314Z,10.40
2022-11-09T01:33:45.773Z,10.30
2022-11-09T01:36:24.466Z,10.30
2022-11-09T01:38:56.141Z,10.30
2022-11-09T01:41:29.060Z,10.40
2022-11-09T01:44:12.339Z,10.60
2022-11-09T01:46:49.695Z,10.50
2022-11-09T01:49:41.021Z,10.50
2022-11-09T01:52:18.076Z,10.50
2022-11-09T01:54:54.382Z,10.40
2022-11-09T01:57:36.494Z,10.50
2022-11-09T02:00:11.693Z,10.50
2022-11-09T02:02:51.345Z,10.40
2022-11-09T02:05:26.412Z,10.50
2022-11-09T02:08:02.721Z,10.60
2022-11-09T02:11:06.392Z,10.70
2022-11-09T02:13:42.659Z,11.00
2022-11-09T02:16:15.313Z,11.40
2022-11-09T02:18:53.666Z,11.50
2022-11-09T02:21:28.292Z,11.70
2022-11-09T02:24:00.383Z,11.80
2022-11-09T02:26:41.603Z,11.90
2022-11-09T02:29:18.537Z,12.10
2022-11-09T02:31:56.192Z,12.30
2022-11-09T02:34:27.924Z,12.30
2022-11-09T02:36:59.594Z,12.40
2022-11-09T02:39:31.488Z,12.30
2022-11-09T02:42:10.517Z,12.30
2022-11-09T02:44:51.175Z,12.30
2022-11-09T02:47:22.850Z,12.40
2022-11-09T02:49:54.741Z,12.40
2022-11-09T02:52:26.586Z,12.30
2022-11-09T02:54:58.269Z,12.30
2022-11-09T02:57:30.023Z,12.30
2022-11-09T03:00:02.105Z,12.20
2022-11-09T03:02:34.977Z,12.20
2022-11-09T03:05:07.157Z,12.10
2022-11-09T03:07:38.828Z,12.00
2022-11-09T03:10:10.537Z,11.90
2022-11-09T03:12:42.357Z,11.80
2022-11-09T03:15:14.863Z,11.70
2022-11-09T03:17:46.704Z,11.60
2022-11-09T03:20:18.495Z,11.50
2022-11-09T03:22:50.232Z,11.40
2022-11-09T03:25:21.970Z,11.30
2022-11-09T03:28:01.265Z,11.20
2022-11-09T03:30:33.565Z,11.10
2022-11-09T03:33:10.325Z,11.00
2022-11-09T03:35:43.731Z,11.00
2022-11-09T03:38:15.446Z,10.90
2022-11-09T03:40:47.231Z,10.80
2022-11-09T03:43:19.673Z,10.70
2022-11-09T03:45:52.622Z,10.70
2022-11-09T03:48:24.661Z,10.60
2022-11-09T03:50:58.371Z,10.60
2022-11-09T03:53:30.606Z,10.50
2022-11-09T03:56:03.493Z,10.50
2022-11-09T03:58:35.151Z,10.40
2022-11-09T04:01:07.068Z,10.40
2022-11-09T04:03:38.812Z,10.40
2022-11-09T04:06:10.542Z,10.40
2022-11-09T04:08:45.709Z,10.30
2022-11-09T04:11:20.268Z,10.40
2022-11-09T04:13:52.267Z,10.40
2022-11-09T04:16:23.948Z,10.40
2022-11-09T04:18:55.759Z,10.40
2022-11-09T04:21:28.597Z,10.50
2022-11-09T04:24:00.451Z,10.50
2022-11-09T04:26:32.154Z,10.50
2022-11-09T04:29:05.274Z,10.50
2022-11-09T04:31:37.067Z,10.50
2022-11-09T04:34:10.361Z,10.40
2022-11-09T04:36:42.682Z,10.30
2022-11-09T04:39:14.508Z,10.30
2022-11-09T04:41:46.430Z,10.30
2022-11-09T04:44:19.624Z,10.20
2022-11-09T04:46:52.367Z,10.30
2022-11-09T04:49:25.120Z,10.30
2022-11-09T04:51:57.906Z,10.30
2022-11-09T04:54:29.678Z,10.30
2022-11-09T04:57:01.399Z,10.30
2022-11-09T04:59:33.145Z,10.30
2022-11-09T05:02:06.895Z,10.30
2022-11-09T05:04:39.750Z,10.30
2022-11-09T05:07:11.829Z,10.30
2022-11-09T05:09:43.535Z,10.30
2022-11-09T05:12:17.259Z,10.30
2022-11-09T05:14:49.909Z,10.20
2022-11-09T05:17:21.879Z,10.20
2022-11-09T05:19:55.893Z,10.20
2022-11-09T05:22:46.488Z,10.20
2022-11-09T05:25:18.150Z,10.20
2022-11-09T05:27:49.915Z,10.20
2022-11-09T05:30:21.766Z,10.10
2022-11-09T05:32:53.830Z,10.10
2022-11-09T05:35:25.752Z,10.10
2022-11-09T05:37:57.636Z,10.10
2022-11-09T05:40:29.578Z,10.10
2022-11-09T05:43:01.255Z,10.10
2022-11-09T05:45:48.303Z,10.10
2022-11-09T05:48:20.134Z,10.00
2022-11-09T05:50:52.264Z,10.00
2022-11-09T05:53:24.055Z,10.00
2022-11-09T05:55:55.906Z,10.00
2022-11-09T05:58:27.639Z,10.00
2022-11-09T06:01:00.067Z,10.00
2022-11-09T06:03:32.079Z,10.00
2022-11-09T06:06:08.624Z,9.90
2022-11-09T06:08:41.303Z,9.90
2022-11-09T06:11:18.301Z,9.80
2022-11-09T06:13:54.745Z,9.80
2022-11-09T06:16:26.769Z,9.80
2022-11-09T06:18:58.859Z,9.80
2022-11-09T06:21:30.552Z,9.80
2022-11-09T06:24:02.238Z,9.80
2022-11-09T06:26:33.962Z,9.70
2022-11-09T06:29:05.884Z,9.70
2022-11-09T06:31:37.675Z,9.80
2022-11-09T06:34:10.137Z,9.70
2022-11-09T06:36:41.980Z,9.80
2022-11-09T06:39:13.696Z,9.70
2022-11-09T06:41:47.636Z,9.80
2022-11-09T06:44:19.558Z,9.80
2022-11-09T06:46:51.630Z,9.80
2022-11-09T06:49:23.356Z,9.80
2022-11-09T06:51:55.050Z,9.80
2022-11-09T06:54:28.007Z,9.80
2022-11-09T06:56:59.893Z,9.80
2022-11-09T06:59:33.451Z,9.90
2022-11-09T07:02:05.200Z,10.10
2022-11-09T07:04:37.879Z,10.20
2022-11-09T07:07:09.690Z,10.30
2022-11-09T07:09:41.514Z,10.40
2022-11-09T07:12:13.298Z,10.40
2022-11-09T07:14:45.036Z,10.40
2022-11-09T07:17:16.861Z,10.50
2022-11-09T07:19:49.214Z,10.50
2022-11-09T07:22:21.021Z,10.50
2022-11-09T07:24:52.762Z,10.40
2022-11-09T07:27:27.857Z,10.40
2022-11-09T07:29:59.943Z,10.40
2022-11-09T07:35:30.648Z,10.60
2022-11-09T07:38:02.764Z,10.60
2022-11-09T07:40:34.932Z,10.50
2022-11-09T07:43:07.476Z,10.50
2022-11-09T07:45:39.575Z,10.50
2022-11-09T07:48:12.085Z,10.60
2022-11-09T07:50:43.818Z,10.70
2022-11-09T07:53:16.495Z,10.70
2022-11-09T07:55:57.268Z,10.80
2022-11-09T07:58:29.556Z,10.80
2022-11-09T08:01:03.543Z,10.80
2022-11-09T08:03:35.281Z,10.80
2022-11-09T08:06:07.076Z,10.80
2022-11-09T08:08:38.782Z,10.90
2022-11-09T08:11:10.576Z,11.00
2022-11-09T08:13:42.371Z,11.00
2022-11-09T08:16:14.072Z,11.00
2022-11-09T08:18:45.765Z,10.90
2022-11-09T08:21:18.257Z,10.90
2022-11-09T08:23:50.672Z,10.90
2022-11-09T08:26:22.426Z,10.90
2022-11-09T08:28:54.298Z,10.90
2022-11-09T08:31:26.410Z,10.90
2022-11-09T08:33:58.132Z,11.00
2022-11-09T08:36:30.429Z,11.10
2022-11-09T08:39:02.146Z,11.20
2022-11-09T08:41:33.932Z,11.20
2022-11-09T08:44:08.123Z,11.30
2022-11-09T08:46:41.479Z,11.30
2022-11-09T08:49:13.471Z,11.40
2022-11-09T08:51:45.293Z,11.50
2022-11-09T08:54:18.213Z,11.50
2022-11-09T08:56:49.968Z,11.60
2022-11-09T08:59:22.317Z,11.60
2022-11-09T09:01:54.042Z,11.70
2022-11-09T09:04:25.848Z,11.60
2022-11-09T09:06:58.556Z,11.70
2022-11-09T09:09:30.448Z,11.70
2022-11-09T09:12:02.121Z,11.70
2022-11-09T09:14:34.666Z,11.70
2022-11-09T09:17:06.331Z,11.70
2022-11-09T09:19:38.118Z,11.70
2022-11-09T09:22:09.798Z,11.70
2022-11-09T09:24:41.509Z,11.70
2022-11-09T09:27:13.308Z,11.70
2022-11-09T09:29:44.990Z,11.70
2022-11-09T09:32:17.206Z,11.80
2022-11-09T09:34:48.910Z,11.80
2022-11-09T09:37:20.585Z,11.90
2022-11-09T09:39:52.324Z,12.00
2022-11-09T09:42:35.272Z,12.20
2022-11-09T09:45:28.224Z,12.40
2022-11-09T09:48:02.868Z,12.60
2022-11-09T09:50:45.540Z,12.80
2022-11-09T09:53:44.753Z,13.00
2022-11-09T09:56:27.619Z,13.20
2022-11-09T09:59:13.950Z,13.30
2022-11-09T10:01:47.572Z,13.30
2022-11-09T10:04:27.635Z,13.20
2022-11-09T10:07:18.872Z,13.10
2022-11-09T10:10:28.527Z,13.00
2022-11-09T10:13:25.582Z,13.00
2022-11-09T10:16:25.579Z,13.10
2022-11-09T10:19:12.409Z,13.30
2022-11-09T10:22:19.520Z,13.40
2022-11-09T10:25:31.999Z,13.50
2022-11-09T10:28:14.312Z,13.70
2022-11-09T10:30:47.972Z,13.90
2022-11-09T10:33:21.406Z,14.00
2022-11-09T10:36:22.068Z,14.10
2022-11-09T10:38:58.751Z,14.10
2022-11-09T10:41:38.167Z,14.10
2022-11-09T10:44:18.671Z,14.10
2022-11-09T10:47:04.209Z,14.10
2022-11-09T10:49:36.973Z,14.10
2022-11-09T10:52:33.332Z,14.10
2022-11-09T10:55:36.820Z,14.00
2022-11-09T10:58:35.664Z,14.00
2022-11-09T11:01:17.713Z,13.90
2022-11-09T11:03:55.537Z,13.90
2022-11-09T11:06:31.573Z,13.90
2022-11-09T11:09:06.608Z,14.00
2022-11-09T11:11:39.613Z,13.90
2022-11-09T11:14:29.098Z,13.90
2022-11-09T11:17:01.396Z,13.90
2022-11-09T11:19:36.501Z,13.90
2022-11-09T11:22:11.322Z,13.90
2022-11-09T11:25:00.458Z,13.90
2022-11-09T11:27:37.266Z,13.80
2022-11-09T11:30:22.890Z,13.90
2022-11-09T11:32:55.665Z,13.80
2022-11-09T11:35:27.484Z,13.80
2022-11-09T11:38:24.824Z,13.80
2022-11-09T11:41:08.423Z,13.70
2022-11-09T11:44:11.049Z,13.70
2022-11-09T11:46:48.365Z,13.70
2022-11-09T11:49:47.722Z,13.70
2022-11-09T11:52:32.398Z,13.70
2022-11-09T11:55:28.375Z,13.80
2022-11-09T11:58:42.162Z,13.80
2022-11-09T12:01:29.689Z,13.80
2022-11-09T12:04:35.348Z,13.80
2022-11-09T12:07:21.045Z,13.90
2022-11-09T12:10:22.270Z,14.00
2022-11-09T12:13:12.464Z,14.10
2022-11-09T12:16:04.728Z,14.20
2022-11-09T12:18:45.345Z,14.30
2022-11-09T12:21:22.735Z,14.30
2022-11-09T12:24:22.130Z,14.40
2022-11-09T12:27:31.591Z,14.40
2022-11-09T12:30:11.440Z,14.30
2022-11-09T12:32:53.996Z,14.30
2022-11-09T12:35:32.245Z,14.40
2022-11-09T12:38:15.393Z,14.40
2022-11-09T12:40:52.010Z,14.50
2022-11-09T12:43:45.894Z,14.60
2022-11-09T12:46:22.298Z,14.70
2022-11-09T12:48:58.726Z,14.70
2022-11-09T12:51:32.140Z,14.70
2022-11-09T12:54:11.214Z,14.70
2022-11-09T12:57:10.367Z,14.70
2022-11-09T12:59:50.469Z,14.60
2022-11-09T13:02:29.347Z,14.50
2022-11-09T13:05:04.717Z,14.50
2022-11-09T13:07:49.902Z,14.50
2022-11-09T13:10:33.708Z,14.40
2022-11-09T13:13:22.607Z,14.30
2022-11-09T13:16:05.787Z,14.20
2022-11-09T13:18:41.563Z,14.20
2022-11-09T13:21:22.314Z,14.10
2022-11-09T13:24:04.451Z,14.10
2022-11-09T13:26:37.587Z,14.10
2022-11-09T13:29:16.951Z,14.10
2022-11-09T13:32:10.881Z,14.20
2022-11-09T13:34:55.907Z,14.10
2022-11-09T13:37:38.136Z,14.20
2022-11-09T13:40:31.789Z,14.10
2022-11-09T13:43:14.635Z,14.10
2022-11-09T13:45:57.217Z,14.10
2022-11-09T13:48:34.912Z,14.10
2022-11-09T13:51:19.427Z,14.10
2022-11-09T13:54:00.499Z,14.10
2022-11-09T13:56:40.035Z,14.10
2022-11-09T13:59:17.906Z,14.10
2022-11-09T14:01:53.948Z,14.10
2022-11-09T14:04:29.457Z,14.10
2022-11-09T14:07:19.764Z,14.10
2022-11-09T14:10:27.924Z,14.10
2022-11-09T14:13:24.164Z,14.20
2022-11-09T14:16:08.952Z,14.20
2022-11-09T14:19:01.397Z,14.20
2022-11-09T14:21:47.261Z,14.20
2022-11-09T14:24:32.564Z,14.20
2022-11-09T14:27:10.377Z,14.20
2022-11-09T14:29:55.224Z,14.20
2022-11-09T14:32:35.874Z,14.10
2022-11-09T14:35:32.898Z,14.00
2022-11-09T14:38:21.487Z,14.00
2022-11-09T14:40:54.277Z,13.90
2022-11-09T14:43:37.781Z,13.80
2022-11-09T14:46:17.166Z,13.70
2022-11-09T14:48:54.772Z,13.70
2022-11-09T14:51:39.005Z,13.70
2022-11-09T14:54:13.867Z,13.50
2022-11-09T14:56:47.780Z,13.50
2022-11-09T14:59:32.061Z,13.50
2022-11-09T15:02:14.907Z,13.40
2022-11-09T15:05:01.535Z,13.40
2022-11-09T15:07:34.876Z,13.40
2022-11-09T15:10:20.065Z,13.40
2022-11-09T15:12:54.950Z,13.40
2022-11-09T15:15:29.445Z,13.30
2022-11-09T15:18:03.061Z,13.20
2022-11-09T15:20:35.373Z,13.20
2022-11-09T15:23:36.681Z,13.20
2022-11-09T15:26:44.518Z,13.10
2022-11-09T15:29:39.186Z,13.10
2022-11-09T15:32:10.817Z,13.00
2022-11-09T15:34:53.332Z,13.00
2022-11-09T15:37:43.638Z,13.00
2022-11-09T15:40:18.809Z,13.00
2022-11-09T15:42:50.617Z,13.00
2022-11-09T15:45:22.436Z,13.00
2022-11-09T15:47:56.022Z,12.80
2022-11-09T15:50:28.934Z,12.90
2022-11-09T15:53:00.602Z,12.90
2022-11-09T15:55:33.482Z,12.90
2022-11-09T15:58:05.206Z,12.90
2022-11-09T16:00:37.059Z,12.90
2022-11-09T16:03:09.937Z,12.90
2022-11-09T16:05:41.687Z,12.90
2022-11-09T16:08:14.167Z,12.90
2022-11-09T16:10:45.909Z,12.90
2022-11-09T16:13:17.593Z,12.80
2022-11-09T16:15:49.990Z,12.80
2022-11-09T16:18:25.984Z,12.80
2022-11-09T16:20:58.510Z,12.80
2022-11-09T16:23:30.915Z,12.70
2022-11-09T16:26:14.607Z,12.70
2022-11-09T16:28:46.834Z,12.70
2022-11-09T16:31:25.283Z,12.70
2022-11-09T16:34:01.742Z,12.70
2022-11-09T16:36:33.702Z,12.70
2022-11-09T16:39:09.370Z,12.60
2022-11-09T16:41:41.985Z,12.60
2022-11-09T16:44:16.841Z,12.60
2022-11-09T16:46:48.851Z,12.60
2022-11-09T16:49:20.586Z,12.60
2022-11-09T16:51:52.347Z,12.50
2022-11-09T16:54:24.524Z,12.50
2022-11-09T16:56:56.446Z,12.50
2022-11-09T16:59:28.689Z,12.40
2022-11-09T17:02:00.625Z,12.40
2022-11-09T17:04:32.353Z,12.40
2022-11-09T17:07:04.134Z,12.40
2022-11-09T17:09:36.451Z,12.40
2022-11-09T17:12:08.195Z,12.40
2022-11-09T17:14:40.006Z,12.40
2022-11-09T17:17:11.736Z,12.30
2022-11-09T17:19:45.411Z,12.30
2022-11-09T17:22:17.955Z,12.30
2022-11-09T17:24:49.708Z,12.20
2022-11-09T17:27:22.044Z,12.20
2022-11-09T17:29:54.086Z,12.20
2022-11-09T17:32:28.161Z,12.20
2022-11-09T17:34:59.858Z,12.20
2022-11-09T17:37:33.613Z,12.20
2022-11-09T17:40:08.221Z,12.20
2022-11-09T17:42:40.673Z,12.20
2022-11-09T17:45:12.450Z,12.20
2022-11-09T17:47:45.741Z,12.20
2022-11-09T17:50:21.241Z,12.10
2022-11-09T17:52:52.997Z,12.00
2022-11-09T17:55:24.699Z,12.10
2022-11-09T17:57:56.515Z,12.00
2022-11-09T18:00:28.334Z,12.00
2022-11-09T18:03:00.314Z,12.00
2022-11-09T18:05:32.191Z,11.90
2022-11-09T18:08:04.314Z,11.90
2022-11-09T18:10:37.519Z,11.80
2022-11-09T18:13:09.519Z,11.80
2022-11-09T18:15:42.058Z,11.70
2022-11-09T18:18:13.828Z,11.70
2022-11-09T18:20:46.135Z,11.70
2022-11-09T18:23:18.173Z,11.80
2022-11-09T18:25:59.694Z,11.80
2022-11-09T18:28:31.443Z,11.80
2022-11-09T18:31:05.650Z,11.80
2022-11-09T18:33:38.734Z,11.80
2022-11-09T18:36:13.330Z,11.80
2022-11-09T18:38:45.194Z,11.80
2022-11-09T18:41:19.896Z,11.80
2022-11-09T18:43:53.863Z,11.80
2022-11-09T18:46:30.081Z,11.80
2022-11-09T18:49:04.177Z,11.90
2022-11-09T18:51:35.867Z,11.90
2022-11-09T18:54:07.709Z,11.90
2022-11-09T18:56:39.875Z,11.90
2022-11-09T18:59:12.693Z,11.90
2022-11-09T19:01:44.802Z,11.90
2022-11-09T19:04:17.283Z,11.90
2022-11-09T19:06:49.022Z,11.90
2022-11-09T19:09:29.817Z,11.90
2022-11-09T19:12:05.869Z,11.90
2022-11-09T19:14:41.763Z,11.80
2022-11-09T19:17:16.634Z,11.80
2022-11-09T19:19:48.457Z,11.80
2022-11-09T19:22:20.332Z,11.80
2022-11-09T19:24:52.090Z,11.70
2022-11-09T19:27:25.014Z,11.80
2022-11-09T19:29:56.735Z,11.80
2022-11-09T19:32:29.530Z,11.80
2022-11-09T19:35:01.270Z,11.70
2022-11-09T19:37:33.102Z,11.70
2022-11-09T19:40:05.349Z,11.70
2022-11-09T19:42:37.031Z,11.70
2022-11-09T19:45:11.966Z,11.70
2022-11-09T19:47:43.795Z,11.70
2022-11-09T19:50:15.914Z,11.70
2022-11-09T19:52:47.670Z,11.70
2022-11-09T19:55:19.445Z,11.70
2022-11-09T19:57:51.189Z,11.60
2022-11-09T20:00:22.966Z,11.60
2022-11-09T20:02:56.980Z,11.60
2022-11-09T20:05:32.381Z,11.60
2022-11-09T20:08:04.720Z,11.60
2022-11-09T20:10:37.808Z,11.60
2022-11-09T20:13:09.570Z,11.60
2022-11-09T20:15:41.351Z,11.60
2022-11-09T20:18:13.806Z,11.60
2022-11-09T20:20:45.630Z,11.60
2022-11-09T20:23:21.552Z,11.50
2022-11-09T20:26:02.350Z,11.50
2022-11-09T20:28:34.370Z,11.50
2022-11-09T20:31:15.429Z,11.50
2022-11-09T20:33:47.636Z,11.50
2022-11-09T20:36:19.559Z,11.50
2022-11-09T20:38:52.294Z,11.50
2022-11-09T20:41:25.535Z,11.50
2022-11-09T20:43:57.514Z,11.40
2022-11-09T20:46:34.496Z,11.40
2022-11-09T20:49:09.153Z,11.40
2022-11-09T20:51:41.063Z,11.40
2022-11-09T20:54:12.923Z,11.40
2022-11-09T20:56:45.643Z,11.40
2022-11-09T20:59:17.476Z,11.40
2022-11-09T21:01:49.178Z,11.40
2022-11-09T21:04:20.893Z,11.40
2022-11-09T21:06:52.742Z,11.40
2022-11-09T21:09:24.512Z,11.40
2022-11-09T21:12:15.142Z,11.40
2022-11-09T21:14:46.916Z,11.40
2022-11-09T21:17:18.938Z,11.40
2022-11-09T21:19:50.678Z,11.40
2022-11-09T21:22:22.359Z,11.40
2022-11-09T21:25:12.727Z,11.40
2022-11-09T21:28:03.414Z,11.40
2022-11-09T21:30:35.245Z,11.40
2022-11-09T21:33:07.265Z,11.30
2022-11-09T21:35:39.078Z,11.30
2022-11-09T21:38:10.865Z,11.30
2022-11-09T21:40:43.074Z,11.30
2022-11-09T21:43:19.551Z,11.30
2022-11-09T21:45:54.027Z,11.30
2022-11-09T21:48:26.209Z,11.20
2022-11-09T21:50:58.122Z,11.20
2022-11-09T21:53:29.945Z,11.30
2022-11-09T21:56:01.749Z,11.30
2022-11-09T21:58:34.066Z,11.20
2022-11-09T22:01:08.470Z,11.30
2022-11-09T22:03:41.497Z,11.30
2022-11-09T22:06:14.367Z,11.20
2022-11-09T22:08:47.390Z,11.20
2022-11-09T22:11:44.416Z,11.10
2022-11-09T22:14:37.866Z,11.10
2022-11-09T22:17:09.842Z,11.10
2022-11-09T22:20:00.559Z,11.10
2022-11-09T22:22:33.891Z,11.10
2022-11-09T22:25:06.297Z,11.10
2022-11-09T22:27:38.109Z,11.10
2022-11-09T22:30:10.214Z,11.00
2022-11-09T22:32:44.370Z,11.00
2022-11-09T22:35:16.147Z,11.00
2022-11-09T22:37:47.818Z,11.00
2022-11-09T22:40:19.588Z,11.00
2022-11-09T22:42:59.333Z,11.10
2022-11-09T22:45:34.453Z,11.10
2022-11-09T22:48:06.275Z,11.10
2022-11-09T22:50:39.395Z,11.20
2022-11-09T22:53:11.166Z,11.20
2022-11-09T22:55:42.835Z,11.10
2022-11-09T22:58:15.487Z,11.10
2022-11-09T23:00:50.459Z,11.10
2022-11-09T23:03:22.715Z,11.00
2022-11-09T23:06:05.011Z,11.00
2022-11-09T23:08:38.114Z,11.00
2022-11-09T23:11:15.669Z,11.00
2022-11-09T23:13:53.776Z,11.00
2022-11-09T23:16:26.193Z,11.00
2022-11-09T23:19:00.840Z,10.90
2022-11-09T23:21:37.231Z,10.90
2022-11-09T23:24:28.897Z,10.90
2022-11-09T23:27:00.615Z,10.90
2022-11-09T23:29:32.288Z,10.90
2022-11-09T23:32:04.203Z,10.90
2022-11-09T23:34:36.912Z,10.90
2022-11-09T23:37:08.710Z,10.80
2022-11-09T23:39:40.598Z,10.80
2022-11-09T23:42:12.912Z,10.80
2022-11-09T23:44:44.689Z,10.80
2022-11-09T23:47:16.453Z,10.80
2022-11-09T23:49:48.349Z,10.80
2022-11-09T23:52:20.231Z,10.80
2022-11-09T23:54:51.914Z,10.80
2022-11-09T23:57:23.702Z,10.80
2022-11-09T23:59:55.473Z,10.90
